Vanderbilt, Michigan
Current Conditions -  °F | °C
As of 12:53 AM on Saturday 29 Nov 2014 (Local Time) from KGLR Reporting Station
Overcast Overcast  
Wind Chill: 10°   Ceiling: 1000
Heat Index: 22°   Visibility: 10mi
Dew Point: 18°   Wind: 12mph
Humidity: 85%   Direction: 170°S
Pressure: 29.92"   Gusts: NA
Location:  45.14°N, 84.66°W
Report Text: KGLR 290553Z AUTO 17010KT 10SM BKN010 OVC043 M06/M08 A2992 RMK AO2 SLP156 60000 T10561078 11056 21072 58022
Loading
Personal Weather Stations






























Interactive Weather Map New forecast layout! Learn more

10-Day Weather Forecast

Advertisements
Track Severe Weather on mobile